Terminal Aerodrome Forecast
Issued by NWS

Home | Current Version | Previous Version | Text Only | Print | Product List | Glossary On
Versions: 1 2 3 4 5 6 7 8 9 10 11 12 13 14 15 16 17 18 19 20 21 22 23 24 25 26 27 28 29 30 31
000
FTUS41 KOKX 251122
TAFTEB
TAF
KTEB 251122Z 2512/2612 VRB04KT P6SM FEW060 BKN150
     FM251400 VRB02KT P6SM SCT060 OVC100
     FM251800 02006KT P6SM OVC030
      TEMPO 2518/2521 6SM -RA BKN020
     FM252100 03007KT 5SM -RA BR OVC010
     FM260100 05006KT 3SM -DZ BR OVC006=

USA.gov is the U.S. government's official web portal to all federal, state and local government web resources and services.